Tiempo atmosférico en la estación meteorológica de Ponferrada, León (534 m.)



Fecha
DESCASC
Temp. máxima en grados centígrados (hora)
DESCASC
Temp. mínima en grados centígrados (hora)
DESCASC
Temp. media en grados centígrados
DESCASC
Racha de viento máxima en m/sg (hora)
DESCASC
Velocidad máxima media en intervalos de 10 minutos(hora)
DESCASC
Precipitaciones diarias en mm
DESCASC
Precipitaciones de 00:00 a 06:00 en mm
DESCASC
Precipitaciones de 06:00 a 12:00 en mm
DESCASC
Precipitaciones de 12:00 a 18:00 en mm
DESCASC
Precipitaciones de 18:00 a 24:00 en mm
DESCASC
05-04-2020 17.1 (14:10) 12.2 (23:50) 14.7 11.67 (03:50) 3.89 (11:40) 2.2 0 0 1.2 1
04-04-2020 20.8 (17:30) 3.6 (08:40) 12.2 10.28 (13:30) 5.28 (16:10) 0 0 0 0 0
03-04-2020 20.7 (19:10) 5.1 (07:40) 12.9 7.22 (21:30) 4.44 (21:20) 0 0 0 0 0
02-04-2020 18.9 (18:00) 7 (00:00) 12.9 6.94 (20:20) 3.33 (20:20) 0.8 0.8 0 0 0
01-04-2020 16.7 (14:10) 6.2 (00:00) 11.5 9.72 (01:10) 4.44 (00:10) 3.4 0.4 0 0 3
31-03-2020 13.1 (15:30) 1.7 (00:00) 7.4 14.17 (16:00) 6.67 (14:50) 0 0 0 0 0
30-03-2020 11.2 (00:00) 3 (00:00) 7.1 10.83 (17:30) 6.39 (17:40) 0 0 0 0 0
29-03-2020 21.2 (17:50) 1.9 (00:00) 11.6 7.78 (18:40) 5.28 (18:40) 0 0 0 0 0
28-03-2020 18.9 (16:30) 0 (00:00) 9.4 4.17 (15:40) 2.22 (15:40) 0 0 0 0 0
27-03-2020 15 (16:40) 0.6 (00:00) 7.8 11.39 (14:40) 6.11 (14:40) 0 0 0 0 0
26-03-2020 18.8 (16:40) 0.9 (00:00) 9.8 8.06 (16:50) 4.72 (17:00) 0 0 0 0 0
25-03-2020 21.7 (15:40) 4.7 (00:00) 13.2 10 (17:10) 5.56 (16:40) 0 0 0 0 0
24-03-2020 20.1 (18:10) 10.5 (00:00) 15.3 7.5 (11:30) 3.89 (11:20) 0 0 0 0 0
23-03-2020 18.8 (15:30) 2.9 (00:00) 10.8 7.5 (17:10) 3.61 (17:10) 0 0 0 0 0
22-03-2020 20.2 (16:10) 5.7 (07:50) 13 8.33 (18:10) 5 (18:10) 1.4 0 0 0.2 1.2
21-03-2020 17.4 (17:30) 9.1 (00:00) 13.3 8.33 (08:20) 5.28 (08:20) 0 0 0 0 0
20-03-2020 15.1 (14:00) 10 (00:00) 12.6 7.5 (13:10) 4.17 (14:30) 1.6 0 0.4 1.2 0
19-03-2020 19.6 (14:10) 7 (00:00) 13.3 8.33 (21:50) 4.72 (21:50) 0 0 0 0 0
18-03-2020 22.8 (17:00) 5.3 (00:00) 14 6.67 (00:10) 3.33 (00:20) 0 0 0 0 0
17-03-2020 18.3 (15:40) 3.2 (00:00) 10.7 8.89 (18:10) 5 (16:50) 0 0 0 0 0
16-03-2020 13.3 (14:20) 3.7 (00:00) 8.5 13.61 (16:00) 6.39 (17:20) 0 0 0 0 0
15-03-2020 17.1 (16:00) 0.9 (00:00) 9 10.83 (17:50) 5.56 (17:30) 2 0 0 0 2
14-03-2020 20.5 (18:20) 4.7 (00:00) 12.6 4.44 (12:40) 1.67 (12:20) 0 0 0 0 0
13-03-2020 19 (17:00) 7.6 (08:10) 13.3 5.83 (18:20) 3.33 (17:50) 0 0 0 0 0
12-03-2020 18.8 (15:20) 7.1 (00:00) 12.9 5 (18:10) 2.78 (17:40) 0 0 0 0 0
11-03-2020 25.2 (17:30) 4.5 (00:00) 14.9 5.83 (17:10) 2.78 (17:10) 0 0 0 0 0
10-03-2020 23.4 (17:40) 4.1 (00:00) 13.7 4.72 (18:50) 2.5 (18:50) 0 0 0 0 0
09-03-2020 17.4 (16:30) 4.8 (00:00) 11.1 6.67 (17:40) 3.61 (03:20) 0 0 0 0 0

Gráficas

Temp. máximas Temp. mínimas Temp. medias Precipitaciones Rachas de viento máximas Velocidades máximas media en intervalos de 10 minutos

Datos horarios

Fecha y hora oficial Temperatura (ºC) Velocidad del viento (km/h) Dirección del viento Racha (km/h) Dirección de racha Precipitación (mm) Presión (hPa) Tendencia (hPa) Humedad (%)
2020-04-07 23:00:00 14.5 5 Sudeste 10 Este 0 959.7 1.9 69
2020-04-07 22:00:00 14.9 4 Sudeste 9 Sudeste 0 958.9 1.2 72
2020-04-07 21:00:00 17.7 3 Sudeste 10 Sudeste 0 958 0.2 64
2020-04-07 20:00:00 20 7 Sudeste 16 Sudeste 0 957.8 -0.2 52
2020-04-07 19:00:00 20.6 6 Sur 14 Sudeste 0 957.7 -0.7 52
2020-04-07 18:00:00 20.8 5 Sudoeste 15 Oeste 0 957.8 -0.9 48
2020-04-07 17:00:00 20.3 5 Norte 15 Nordeste 0 958 -0.9 52
2020-04-07 16:00:00 19.2 6 Sudeste 14 Este 0 958.4 -1 56
2020-04-07 15:00:00 18.4 8 Este 18 Este 0 958.7 -0.8 60
2020-04-07 14:00:00 18.6 8 Este 18 Este 0 958.9 -0.6 59
2020-04-07 13:00:00 15.5 6 Oeste 13 Sudoeste 0 959.4 0 72
2020-04-07 12:00:00 14.2 4 Oeste 9 Noroeste 0 959.5 0.4 76
2020-04-07 11:00:00 12.6 4 Sudoeste 6 Sudoeste 0 959.5 0.7 80
2020-04-07 10:00:00 10.9 3 Sudeste 6 Sur 0 959.4 0.9 86
2020-04-07 09:00:00 9.5 2 Sudeste 4 Sudeste 0 959.1 0.6 90
2020-04-07 08:00:00 8.8 4 Este 6 Este 0 958.8 0.1 90
2020-04-07 07:00:00 9.1 4 Nordeste 8 Sudoeste 0 958.5 -0.3 90
2020-04-07 06:00:00 9.2 3 Sur 7 Sudeste 0 958.5 -0.5 90
2020-04-07 05:00:00 9.7 3 Este 6 Sudoeste 0 958.7 0.1 89
2020-04-07 04:00:00 10.2 3 Sudeste 7 Sur 0 958.8 0.2 87
2020-04-07 03:00:00 11.4 3 Este 17 Sudeste 0 959 0.3 84
2020-04-07 02:00:00 11.5 10 Este 20 Nordeste 0 958.6 -0.1 82
2020-04-07 01:00:00 11.9 4 Sur 5 Sudeste 0 958.6 0.3 84
2020-04-07 00:00:00 12.3 4 Sudoeste 5 Sur 0 958.7 0.9 82
2020-04-06 23:00:00 12.6 3 Nordeste 7 Sudeste 0 958.7 1.2 77
2020-04-06 22:00:00 13 5 Sudeste 8 Sudeste 0 958.3 1.3 77
2020-04-06 21:00:00 13.4 5 Sudeste 10 Sudeste 0 957.8 0.9 75
2020-04-06 20:00:00 13.9 7 Sudeste 14 Sur 0 957.5 0.6 76
2020-04-06 19:00:00 14.9 4 Sur 12 Sur 0 957 0 66
2020-04-06 18:00:00 15.2 7 Este 14 Sur 0 956.9 -0.1 66
2020-04-06 17:00:00 16.1 3 Sur 11 Noroeste 0 956.9 -0.2 54
2020-04-06 16:00:00 16 5 Oeste 12 Oeste 0 957 0.2 55
2020-04-06 15:00:00 16.2 5 Oeste 13 Noroeste 0 957 0.1 57
2020-04-06 14:00:00 15.6 5 Oeste 14 Oeste 0 957.1 0.4 60
2020-04-06 13:00:00 15 6 Oeste 12 Noroeste 0 956.8 0.6 65
2020-04-06 12:00:00 12.7 5 Oeste 13 Oeste 0 956.9 1.6 80
2020-04-06 11:00:00 12.4 5 Oeste 11 Oeste 0 956.7 2.5 84
2020-04-06 10:00:00 11.6 4 Oeste 10 Oeste 0 956.2 2.7 90
2020-04-06 09:00:00 11.3 4 Oeste 12 Oeste 0.4 955.3 2.4 94
2020-04-06 08:00:00 11.3 5 Oeste 11 Oeste 0 954.2 1.5 97
2020-04-06 07:00:00 11.3 4 Oeste 10 Sudoeste 0 953.5 0.9 97
2020-04-06 06:00:00 11.6 4 Sudoeste 6 Oeste 0.2 952.9 0.5 96
2020-04-06 05:00:00 11.6 0 Calma 4 Oeste 0.2 952.7 0.3 96
2020-04-06 04:00:00 11.4 3 Sudoeste 4 Sudoeste 0.2 952.6 0.4 97
2020-04-06 03:00:00 11.1 0 Calma 5 Este 0 952.4 0.3 96
2020-04-06 02:00:00 11.3 0 Calma 5 Noroeste 0 952.4 0.6 93
2020-04-06 01:00:00 11.9 4 Sur 7 Sudeste 0.2 952.2 0.9 91
2020-04-06 00:00:00 12.2 4 Este 8 Nordeste 0.4 952.1 1.6 88
2020-04-05 23:00:00 12.5 0 Calma 4 Nordeste 0 951.8 1.3 93
2020-04-05 22:00:00 12.6 2 Noroeste 5 Norte 0 951.3 1.1 92
2020-04-05 21:00:00 13.1 0 Calma 6 Oeste 0 950.5 0 90
2020-04-05 20:00:00 13.2 2 Oeste 10 Oeste 0 950.5 0.6 91
2020-04-05 19:00:00 13.3 3 Noroeste 8 Nordeste 0.6 950.2 0.7 86
2020-04-05 18:00:00 13.4 6 Noroeste 12 Norte 0.8 950.5 1 88
2020-04-05 17:00:00 14.6 4 Norte 13 Este 0.4 949.9 0.6 80
2020-04-05 16:00:00 15.8 4 Este 22 Sudoeste 0 949.5 0 62
2020-04-05 15:00:00 16.6 10 Sudoeste 29 Sudoeste 0 949.5 -0.3 52
2020-04-05 14:00:00 17 3 Sur 15 Sur 0 949.3 -0.5 55
2020-04-05 13:00:00 16.3 5 Oeste 19 Sur 0 949.5 -0.2 54
2020-04-05 12:00:00 16 12 Sudeste 26 Sur 0 949.8 0.2 57
2020-04-05 11:00:00 14.6 8 Este 22 Este 0 949.8 0.6 62
2020-04-05 10:00:00 14.2 11 Este 24 Este 0 949.7 0.8 62
2020-04-05 09:00:00 14 9 Sudeste 20 Este 0 949.6 0.8 61
2020-04-05 08:00:00 14.2 8 Sudeste 23 Sudeste 0 949.2 0.4 58
2020-04-05 07:00:00 14.5 10 Sudeste 20 Sudeste 0 948.9 -0.2 56
2020-04-05 06:00:00 14.7 6 Sudeste 21 Sudeste 0 948.8 -0.5 53
2020-04-05 05:00:00 14.7 8 Sur 22 Sur 0 948.8 -0.7 52
2020-04-05 04:00:00 15.1 8 Sur 42 Sudeste 0 949.1 -0.5 49
2020-04-05 03:00:00 15 3 Este 24 Este 0 949.3 -0.1 47
2020-04-05 02:00:00 14.9 5 Oeste 20 Oeste 0 949.5 0.2 46
2020-04-05 01:00:00 14.8 2 Oeste 8 Este 0 949.6 0.6 46
2020-04-05 00:00:00 15.3 4 Nordeste 27 Sudoeste 0 949.4 1 45
2020-04-04 23:00:00 16.6 9 Sur 22 Sudoeste 0 949.3 1.1 38
2020-04-04 22:00:00 16.3 2 Sur 13 Sur 0 949 0.5 44
2020-04-04 21:00:00 17.3 7 Sudeste 30 Sudeste 0 948.4 0 38
2020-04-04 20:00:00 18 10 Sudeste 19 Sur 0 948.2 -0.1 34
2020-04-04 19:00:00 18.6 9 Sudeste 26 Sudeste 0 948.5 -0.1 32
2020-04-04 18:00:00 19.2 14 Sudeste 32 Sudeste 0 948.4 -1 31
2020-04-04 17:00:00 20 14 Sudeste 32 Sudeste 0 948.3 -1.8 28
2020-04-04 16:00:00 19.5 14 Sudeste 35 Este 0 948.6 -2.5 31
2020-04-04 15:00:00 19.5 14 Sudeste 32 Sudeste 0 949.4 -2.4 32
2020-04-04 14:00:00 19 11 Sudeste 37 Este 0 950.1 -2.2 38
2020-04-04 13:00:00 17.1 17 Este 31 Este 0 951.1 -1.6 42
2020-04-04 12:00:00 14.7 12 Este 26 Este 0 951.8 -0.7 49
2020-04-04 11:00:00 9.9 4 Oeste 9 Noroeste 0 952.3 0 71
2020-04-04 10:00:00 7.3 2 Oeste 7 Noroeste 0 952.7 0.4 79
2020-04-04 09:00:00 4.5 3 Nordeste 5 Este 0 952.5 0.4 88
2020-04-04 08:00:00 4.1 2 Noroeste 5 Este 0 952.3 0 87
2020-04-04 07:00:00 4.5 3 Oeste 5 Este 0 952.3 -0.3 87
2020-04-04 06:00:00 5 2 Este 4 Este 0 952.1 -1 83
2020-04-04 05:00:00 6.3 2 Nordeste 8 Sur 0 952.3 -0.7 78
2020-04-04 04:00:00 7.4 4 Sur 9 Sur 0 952.6 -0.3 75
2020-04-04 03:00:00 8.4 2 Este 9 Sur 0 953.1 0.5 71
2020-04-04 02:00:00 10.4 5 Sur 22 Este 0 953 0.7 63
2020-04-04 01:00:00 11.4 9 Este 22 Sudeste 0 952.9 1.1 59
2020-04-04 00:00:00 12.2 12 Este 25 Este 0 952.6 1.4 56
2020-04-03 23:00:00 13.1 13 Este 25 Sudeste 0 952.3 1.2 53
2020-04-03 22:00:00 14.6 10 Este 26 Sudeste 0 951.8 0.9 49
2020-04-03 21:00:00 16.2 11 Sudeste 24 Sudeste 0 951.2 0 45
2020-04-03 20:00:00 18.7 11 Sudeste 23 Sudeste 0 951.1 -0.5 38
2020-04-03 19:00:00 20.5 3 Oeste 12 Nordeste 0 950.9 -1.4 33
2020-04-03 18:00:00 20.1 6 Oeste 14 Noroeste 0 951.2 -1.9 33
2020-04-03 17:00:00 19.2 4 Sudeste 16 Nordeste 0 951.6 -2.3 34
2020-04-03 16:00:00 18.5 3 Norte 17 Oeste 0 952.3 -2.3 34
2020-04-03 15:00:00 17.5 7 Oeste 17 Oeste 0 953.1 -2.4 37
2020-04-03 14:00:00 16.1 7 Oeste 12 Noroeste 0 953.9 -1.7 44
2020-04-03 13:00:00 14 5 Oeste 10 Oeste 0 954.6 -0.9 54
2020-04-03 12:00:00 11.6 4 Sudoeste 11 Oeste 0 955.5 0.1 62
2020-04-03 11:00:00 9 4 Oeste 11 Oeste 0 955.6 0.6 72
2020-04-03 10:00:00 7.5 3 Noroeste 7 Noroeste 0 955.5 1 80
2020-04-03 09:00:00 5.6 0 Calma 5 Oeste 0 955.4 1 86
2020-04-03 08:00:00 5.2 0 Calma 4 Noroeste 0 955 0.4 88
2020-04-03 07:00:00 5.9 0 Calma 5 Noroeste 0 954.5 -0.2 84
2020-04-03 06:00:00 6.5 0 Calma 4 Nordeste 0 954.4 -0.3 84
2020-04-03 05:00:00 6.2 0 Calma 4 Oeste 0 954.6 -0.1 85
2020-04-03 04:00:00 5.6 2 Nordeste 3 Nordeste 0 954.7 0.1 87
2020-04-03 03:00:00 5.3 3 Este 5 Este 0 954.7 0.1 86
2020-04-03 02:00:00 6.4 3 Sur 5 Sur 0 954.7 0.4 84
2020-04-03 01:00:00 7.3 2 Este 6 Sur 0 954.6 1.1 80
2020-04-03 00:00:00 8.4 3 Sur 11 Sudoeste 0 954.6 2 77
2020-04-02 23:00:00 9 2 Sur 8 Sudoeste 0 954.3 2.2 72
2020-04-02 22:00:00 11.2 3 Nordeste 12 Norte 0 953.5 2 60
2020-04-02 21:00:00 13.8 7 Nordeste 25 Norte 0 952.6 1.2 48
2020-04-02 20:00:00 16.5 8 Nordeste 19 Norte 0 952.1 0.6 41
2020-04-02 19:00:00 17.8 5 Noroeste 13 Noroeste 0 951.5 -0.2 35
2020-04-02 18:00:00 18.9 5 Norte 14 Nordeste 0 951.4 -0.8 34
2020-04-02 17:00:00 17.4 4 Oeste 14 Norte 0 951.5 -1.2 37
2020-04-02 16:00:00 17.4 5 Nordeste 17 Oeste 0 951.7 -1.6 38
2020-04-02 15:00:00 17.8 5 Oeste 12 Noroeste 0 952.2 -1.4 46
2020-04-02 14:00:00 14 3 Oeste 12 Noroeste 0 952.7 -0.9 64
2020-04-02 13:00:00 11.3 4 Oeste 12 Oeste 0 953.3 0.3 79
2020-04-02 12:00:00 8.9 3 Este 10 Oeste 0 953.6 1.4 89
2020-04-02 11:00:00 8.1 4 Sudoeste 6 Sudoeste 0 953.6 2.1 95
2020-04-02 10:00:00 7.3 5 Sudoeste 8 Sudoeste 0 953 1.9 97
2020-04-02 09:00:00 7.1 4 Oeste 6 Noroeste 0 952.2 1.3 97
2020-04-02 08:00:00 7.1 3 Noroeste 8 Noroeste 0 951.5 0.6 96
2020-04-02 07:00:00 7.1 2 Nordeste 4 Nordeste 0 951.1 0 95
2020-04-02 06:00:00 7.1 0 Calma 5 Este 0 950.9 -0.5 95
2020-04-02 05:00:00 7.2 0 Calma 5 Noroeste 0 950.9 -0.5 95
2020-04-02 04:00:00 7.2 2 Oeste 5 Noroeste 0 951.1 -0.4 95
2020-04-02 03:00:00 7.3 3 Oeste 6 Noroeste 0.2 951.4 -0.1 95
2020-04-02 02:00:00 7.5 3 Oeste 7 Oeste 0.2 951.4 0.2 95
2020-04-02 01:00:00 7.4 0 Calma 6 Oeste 0.4 951.5 0.5 94
2020-04-02 00:00:00 7.6 3 Sudoeste 6 Este 0 951.5 1.2 93
2020-04-01 23:00:00 7.2 4 Este 8 Este 0 951.2 1.5 94
2020-04-01 22:00:00 7.7 4 Sudeste 6 Sudeste 0 951 1.7 91
2020-04-01 21:00:00 8.1 2 Este 11 Noroeste 0.2 950.3 2.5 89
2020-04-01 20:00:00 8.6 6 Noroeste 14 Oeste 2.6 949.7 2.6 87
2020-04-01 19:00:00 10.9 4 Noroeste 26 Noroeste 0.2 949.3 1.8 71
2020-04-01 18:00:00 12 14 Oeste 30 Oeste 0 947.8 -0.3 65
2020-04-01 17:00:00 15.9 3 Norte 21 Nordeste 0 947.1 -1.3 38
2020-04-01 16:00:00 15.7 10 Este 22 Este 0 947.5 -1.6 42
2020-04-01 15:00:00 15.3 9 Este 24 Este 0 948.1 -1.2 45
2020-04-01 14:00:00 16.3 5 Sudeste 21 Sudeste 0 948.4 -1.2 38
2020-04-01 13:00:00 14.6 11 Este 24 Este 0 949.1 -0.2 51
2020-04-01 12:00:00 12.3 5 Este 20 Nordeste 0 949.3 0.4 60
2020-04-01 11:00:00 8.4 0 Calma 7 Sudoeste 0 949.6 1.5 79
2020-04-01 10:00:00 6.8 3 Sur 7 Sur 0 949.3 1.7 87
2020-04-01 09:00:00 6.3 0 Calma 7 Sudoeste 0 948.9 1.5 88
2020-04-01 08:00:00 6.3 3 Noroeste 14 Este 0 948.1 0.9 88
2020-04-01 07:00:00 6.9 11 Este 21 Este 0 947.6 0.5 80
2020-04-01 06:00:00 7 11 Este 26 Este 0 947.4 0.7 79
2020-04-01 05:00:00 7 14 Este 26 Este 0.2 947.2 0.6 79
2020-04-01 04:00:00 8.2 9 Este 23 Sudeste 0.2 947.1 0.8 80
2020-04-01 03:00:00 8.5 12 Este 23 Este 0 946.7 0.4 78
2020-04-01 02:00:00 9 12 Este 35 Este 0 946.6 0.5 74
2020-04-01 01:00:00 9.4 13 Sudeste 31 Este 0 946.3 0.8 71
2020-04-01 00:00:00 9.3 13 Sudeste 26 Este 0 946.3 1.3 71
2020-03-31 23:00:00 9.1 11 Este 23 Sudeste 0 946.1 1.1 71
2020-03-31 22:00:00 8.9 11 Este 22 Sudeste 0 945.5 1 71
2020-03-31 21:00:00 8.5 9 Este 22 Este 0 945 0.7 72
2020-03-31 20:00:00 8.7 15 Este 28 Sudeste 0 945 1.2 69
2020-03-31 19:00:00 9.8 17 Este 34 Sudeste 0 944.5 1 63
2020-03-31 18:00:00 10.8 18 Sudeste 36 Sudeste 0 944.3 0.3 58
2020-03-31 17:00:00 11.3 15 Sudeste 39 Este 0 943.8 -0.5 52
2020-03-31 16:00:00 12.3 23 Sudeste 51 Este 0 943.5 -1.3 47
2020-03-31 15:00:00 11.4 23 Sudeste 42 Sudeste 0 944 -1.4 45
2020-03-31 14:00:00 9.8 21 Sudeste 44 Sudeste 0 944.3 -1.9 46
2020-03-31 13:00:00 8.9 14 Sudeste 37 Sudeste 0 944.8 -2 44
2020-03-31 12:00:00 6.9 18 Sudeste 34 Sudeste 0 945.4 -1.6 46
2020-03-31 11:00:00 4.9 10 Este 19 Este 0 946.2 -0.7 50
2020-03-31 10:00:00 3.7 13 Este 25 Sudeste 0 946.8 -0.1 54
2020-03-31 09:00:00 3 12 Sudeste 22 Sudeste 0 947 -0.4 58
2020-03-31 08:00:00 2.9 10 Sudeste 19 Sudeste 0 946.9 -1.2 57
2020-03-31 07:00:00 2.6 5 Este 13 Este 0 946.9 -1.9 58
2020-03-31 06:00:00 2.3 6 Este 18 Sudeste 0 947.4 -2.3 58
2020-03-31 05:00:00 1.9 10 Sudeste 17 Sudeste 0 948.1 -2.3 58
2020-03-31 04:00:00 1.8 7 Este 14 Este 0 948.8 -2.4 60
2020-03-31 03:00:00 2.6 9 Este 15 Este 0 949.7 -1.9 58
2020-03-31 02:00:00 1.8 9 Este 12 Este 0 950.4 -1.5 59
2020-03-31 01:00:00 2.1 5 Este 11 Este 0 951.2 -0.9 55
2020-03-31 00:00:00 3 6 Este 18 Nordeste 0 951.6 -0.1 50
2020-03-30 23:00:00 3.5 9 Este 25 Sudeste 0 951.9 0.2 44
2020-03-30 22:00:00 4.2 13 Este 25 Sudeste 0 952.1 0.5 41
2020-03-30 21:00:00 5.5 17 Este 30 Este 0 951.7 0.1 40
2020-03-30 20:00:00 6.9 17 Este 37 Este 0 951.7 -0.1 33
2020-03-30 19:00:00 8.3 19 Este 37 Este 0 951.6 -0.6 31
2020-03-30 18:00:00 9.2 21 Este 39 Este 0 951.6 -1.5 30
2020-03-30 17:00:00 10.2 19 Este 36 Este 0 951.8 -2 32
2020-03-30 16:00:00 10.4 15 Este 36 Este 0 952.2 -2.2 28
2020-03-30 15:00:00 9.3 16 Este 31 Este 0 953.1 -2.1 32
2020-03-30 14:00:00 9.2 17 Este 31 Este 0 953.8 -1.6 35
2020-03-30 13:00:00 8 15 Sudeste 28 Sudeste 0 954.4 -1 40
2020-03-30 12:00:00 6.3 11 Sudeste 22 Sudeste 0 955.2 -0.2 49
2020-03-30 11:00:00 5.7 12 Sudeste 25 Sudeste 0 955.4 0.7 54
2020-03-30 10:00:00 5.6 12 Sudeste 22 Sudeste 0 955.4 0.8 58
2020-03-30 09:00:00 5.5 9 Sudeste 20 Este 0 955.4 1.1 65
2020-03-30 08:00:00 6.1 12 Sudeste 30 Sudeste 0 954.7 0.4 63
2020-03-30 07:00:00 7.2 13 Sudeste 32 Sudeste 0 954.6 0.1 57
2020-03-30 06:00:00 8.3 12 Este 26 Sudeste 0 954.3 -0.4 58
2020-03-30 05:00:00 9.1 8 Nordeste 17 Nordeste 0 954.3 -0.7 62
2020-03-30 04:00:00 9.5 8 Nordeste 14 Nordeste 0 954.5 -0.7 64
2020-03-30 03:00:00 9.8 8 Nordeste 17 Este 0 954.7 -0.5 64
2020-03-30 02:00:00 10.6 3 Norte 15 Nordeste 0 955 -0.1 59
2020-03-30 01:00:00 10.9 8 Nordeste 19 Nordeste 0 955.2 0.2 57
2020-03-30 00:00:00 11.2 4 Norte 10 Nordeste 0 955.2 0.8 58
2020-03-29 23:00:00 11.9 2 Noroeste 9 Noroeste 0 955.1 1.4 54
2020-03-29 22:00:00 12.4 6 Oeste 16 Oeste 0 955 2.2 52
2020-03-29 21:00:00 13.2 10 Oeste 23 Norte 0 954.4 1.8 49
2020-03-29 20:00:00 15.9 9 Norte 28 Nordeste 0 953.7 0.5 42
2020-03-29 19:00:00 18.6 8 Norte 28 Noroeste 0 952.8 -1.3 35
2020-03-29 18:00:00 21.1 6 Oeste 13 Sudoeste 0 952.6 -2.4 20
2020-03-29 17:00:00 20.4 8 Oeste 18 Oeste 0 953.2 -2.7 23
2020-03-29 16:00:00 19 6 Noroeste 16 Oeste 0 954.1 -2.7 23
2020-03-29 15:00:00 17.6 5 Noroeste 13 Oeste 0 955 -2.6 35
2020-03-29 14:00:00 15.4 4 Oeste 13 Noroeste 0 955.9 -2.1 39
2020-03-29 13:00:00 12.1 4 Oeste 10 Sudoeste 0 956.8 -1.2 49
2020-03-29 12:00:00 8.9 4 Norte 8 Noroeste 0 957.6 -0.2 62
2020-03-29 11:00:00 6.1 3 Oeste 8 Oeste 0 958 0.6 74
2020-03-29 10:00:00 4.2 2 Oeste 5 Oeste 0 958 0.7 79
2020-03-29 09:00:00 2.3 0 Calma 3 Nordeste 0 957.8 0.8 85
2020-03-29 08:00:00 2 2 Este 3 Este 0 957.4 0.4 85
2020-03-29 07:00:00 2.5 2 Este 4 Este 0 957.3 0.2 82
2020-03-29 06:00:00 3.3 2 Este 3 Este 0 957 -0.1 82
2020-03-29 05:00:00 4.1 0 Calma 4 Este 0 957 0 78
2020-03-29 03:00:00 6.1 0 Calma 4 Sudeste 0 957.1 0.6 69
2020-03-29 01:00:00 7.8 3 Oeste 7 Sur 0 957 0.8 62
2020-03-29 00:00:00 8.5 4 Sur 8 Sur 0 956.8 1.4 60
2020-03-28 23:00:00 9.2 3 Sudeste 5 Sudeste 0 956.5 2.1 61
2020-03-28 22:00:00 11.3 4 Sudeste 12 Sudoeste 0 956.2 2.3 54
2020-03-28 21:00:00 13.5 6 Oeste 12 Oeste 0 955.4 2 44
2020-03-28 20:00:00 15.7 2 Este 6 Sudoeste 0 954.4 1.1 37
2020-03-28 19:00:00 18 4 Sudoeste 13 Oeste 0 953.9 0.3 27
2020-03-28 18:00:00 18.6 4 Oeste 13 Oeste 0 953.4 -0.7 23
2020-03-28 17:00:00 18.7 5 Oeste 13 Noroeste 0 953.3 -1.5 21
2020-03-28 16:00:00 18.6 7 Noroeste 15 Oeste 0 953.6 -1.9 20
2020-03-28 15:00:00 17.9 7 Oeste 14 Oeste 0 954.1 -2.2 21
2020-03-28 14:00:00 16.3 6 Oeste 14 Oeste 0 954.8 -1.9 29
2020-03-28 13:00:00 14.2 5 Oeste 13 Oeste 0 955.5 -1.3 36
2020-03-28 12:00:00 11.2 3 Noroeste 10 Oeste 0 956.3 -0.3 46
2020-03-28 11:00:00 8.6 4 Sudoeste 8 Oeste 0 956.7 0.4 50
2020-03-28 10:00:00 6.3 3 Sudoeste 10 Noroeste 0 956.8 1.1 60
2020-03-28 09:00:00 3.5 3 Oeste 6 Oeste 0 956.6 1.4 69
2020-03-28 08:00:00 0.6 0 Calma 5 Norte 0 956.3 1.7 79
2020-03-28 07:00:00 0.2 3 Sudeste 4 Sur 0 955.7 1.3 80
2020-03-28 06:00:00 0.6 0 Calma 4 Este 0 955.2 1 78
2020-03-28 05:00:00 1.1 2 Este 5 Este 0 954.6 0.5 76
2020-03-28 04:00:00 1.6 2 Este 5 Este 0 954.4 0.8 72
2020-03-28 03:00:00 2.2 3 Este 7 Sudeste 0 954.2 0.9 69
2020-03-28 02:00:00 3.3 4 Sudeste 6 Sudeste 0 954.1 1.4 65
2020-03-28 01:00:00 4.6 3 Noroeste 7 Noroeste 0 953.6 1.5 60
2020-03-28 00:00:00 6.3 0 Calma 13 Sur 0 953.3 2 53
2020-03-27 23:00:00 7.9 6 Sur 15 Sur 0 952.7 2.3 45
2020-03-27 22:00:00 8.6 9 Sudeste 14 Sur 0 952.1 2.4 43
2020-03-27 21:00:00 9.5 4 Sudeste 12 Sudeste 0 951.3 2.1 40
2020-03-27 20:00:00 11.6 11 Este 26 Este 0 950.4 1.4 32
2020-03-27 19:00:00 13.7 10 Sudeste 32 Sudeste 0 949.7 0.4 26
2020-03-27 18:00:00 14.8 12 Sudeste 27 Sudeste 0 949.2 -0.4 23
2020-03-27 17:00:00 14.8 14 Sudeste 34 Sudeste 0 949 -1.1 25
2020-03-27 16:00:00 14.5 18 Este 39 Sudeste 0 949.3 -1.2 24
2020-03-27 15:00:00 14.1 12 Sudeste 41 Este 0 949.6 -1.8 26
2020-03-27 14:00:00 13.4 15 Sudeste 34 Sudeste 0 950.1 -1.4 26
2020-03-27 13:00:00 12.1 16 Sudeste 30 Sur 0 950.5 -0.9 28
2020-03-27 12:00:00 10.9 14 Sudeste 31 Sudeste 0 951.4 0.3 34
2020-03-27 11:00:00 9.2 18 Sudeste 34 Sudeste 0 951.5 0.9 36
2020-03-27 10:00:00 7.4 18 Este 35 Este 0 951.4 1.3 44
2020-03-27 09:00:00 5 13 Este 26 Este 0 951.1 1.4 60
2020-03-27 08:00:00 3.2 11 Este 24 Este 0 950.6 1.4 67
2020-03-27 07:00:00 2.1 6 Este 18 Nordeste 0 950.1 0.9 69
2020-03-27 06:00:00 0.9 3 Oeste 7 Este 0 949.7 0.5 77
2020-03-27 05:00:00 1.1 2 Sudeste 8 Sur 0 949.2 0 76
2020-03-27 04:00:00 1.9 4 Este 8 Sudeste 0 949.2 0 75
2020-03-27 03:00:00 3 5 Sur 8 Sudeste 0 949.2 0.3 71
2020-03-27 02:00:00 4.1 2 Oeste 10 Sur 0 949.2 0.5 67
2020-03-27 01:00:00 4.6 4 Sur 7 Sur 0 949.2 0.7 66
2020-03-27 00:00:00 5.4 4 Este 8 Este 0 948.9 0.6 62
2020-03-26 23:00:00 6.5 3 Este 5 Este 0 948.7 0.8 56
2020-03-26 22:00:00 8.5 0 Calma 12 Norte 0 948.5 1.2 45
2020-03-26 21:00:00 11.3 4 Norte 15 Norte 0 948.3 1.6 34
2020-03-26 20:00:00 13 4 Norte 22 Norte 0 947.9 1.3 28
2020-03-26 19:00:00 16.3 8 Norte 19 Norte 0 947.3 0.2 22
2020-03-26 18:00:00 18 13 Oeste 24 Noroeste 0 946.7 -0.8 29
2020-03-26 17:00:00 18.2 17 Oeste 29 Noroeste 0 946.6 -1.7 26
2020-03-26 16:00:00 18.5 12 Oeste 24 Noroeste 0 947.1 -1.9 27
2020-03-26 15:00:00 18.4 12 Noroeste 24 Oeste 0 947.5 -2.5 26
2020-03-26 14:00:00 17 6 Oeste 18 Oeste 0 948.3 -2.4 23
2020-03-26 13:00:00 14.7 7 Sudoeste 14 Oeste 0 949 -2.4 32
2020-03-26 12:00:00 12.1 4 Nordeste 11 Nordeste 0 950 -1.8 47
2020-03-26 11:00:00 8.8 4 Norte 10 Noroeste 0 950.7 -1.4 58
2020-03-26 10:00:00 6.3 3 Noroeste 9 Oeste 0 951.4 -0.4 66
2020-03-26 09:00:00 4 2 Oeste 5 Norte 0 951.8 0.3 71
2020-03-26 08:00:00 1.3 2 Norte 4 Sur 0 952.1 0.5 85
2020-03-26 07:00:00 1.1 3 Este 5 Este 0 951.8 0.1 85
2020-03-26 06:00:00 2.3 3 Norte 5 Norte 0 951.5 -0.5 81
2020-03-26 05:00:00 2.8 0 Calma 5 Sur 0 951.6 -0.8 82
2020-03-26 04:00:00 3.5 3 Este 4 Este 0 951.7 -0.9 79
2020-03-26 03:00:00 4.4 0 Calma 5 Sur 0 952 -0.6 77
2020-03-26 02:00:00 5.6 2 Sudeste 5 Sudeste 0 952.4 -0.3 72
2020-03-26 01:00:00 6.9 3 Este 10 Sudeste 0 952.6 0.1 66
2020-03-26 00:00:00 8.2 3 Sudeste 9 Sudeste 0 952.6 0.4 61
2020-03-25 23:00:00 8.7 4 Sudeste 9 Sudeste 0 952.7 1 58
2020-03-25 22:00:00 10.8 5 Este 8 Este 0 952.5 1.4 52
2020-03-25 21:00:00 12.4 3 Nordeste 10 Nordeste 0 952.2 1.7 48
2020-03-25 20:00:00 15.7 3 Nordeste 20 Nordeste 0 951.7 1.5 39
2020-03-25 19:00:00 18 9 Nordeste 22 Nordeste 0 951.1 0.5 35
2020-03-25 18:00:00 19.3 6 Norte 36 Noroeste 0 950.5 -0.5 35
2020-03-25 17:00:00 20.5 17 Oeste 33 Oeste 0 950.2 -1.6 33
2020-03-25 16:00:00 20.8 17 Oeste 34 Noroeste 0 950.6 -2.1 33
2020-03-25 15:00:00 20.8 17 Oeste 32 Noroeste 0 951 -2.5 28
2020-03-25 14:00:00 20.2 12 Oeste 24 Noroeste 0 951.8 -2.4 28
2020-03-25 13:00:00 18 7 Oeste 15 Oeste 0 952.7 -1.9 42
2020-03-25 12:00:00 14.9 3 Noroeste 10 Noroeste 0 953.5 -1.2 56
2020-03-25 11:00:00 12 3 Oeste 8 Oeste 0 954.2 -0.5 64
2020-03-25 10:00:00 9.3 5 Oeste 8 Oeste 0 954.6 0.3 72
2020-03-25 09:00:00 7.4 0 Calma 3 Sudeste 0 954.7 0.5 80
2020-03-25 08:00:00 4.8 2 Este 6 Noroeste 0 954.7 0.6 89
2020-03-25 07:00:00 4.7 0 Calma 4 Sudeste 0 954.3 0.1 89
2020-03-25 06:00:00 4.9 3 Este 4 Este 0 954.2 0 87
2020-03-25 05:00:00 5.5 0 Calma 3 Este 0 954.1 -0.1 86
2020-03-25 04:00:00 6.2 0 Calma 4 Este 0 954.2 0 83
2020-03-25 03:00:00 7.2 0 Calma 6 Sudeste 0 954.2 0.1 79
2020-03-25 02:00:00 8.2 2 Este 6 Este 0 954.2 0.4 74
2020-03-25 01:00:00 9.9 2 Nordeste 4 Norte 0 954.2 0.8 68
2020-03-25 00:00:00 11.7 2 Noroeste 6 Noroeste 0 954.1 1.1 62
2020-03-24 23:00:00 12.8 2 Oeste 14 Este 0 953.8 1.3 55
2020-03-24 22:00:00 13.4 5 Sudeste 11 Este 0 953.4 1.1 51
2020-03-24 21:00:00 13.9 5 Sudeste 11 Sudeste 0 953 1 50
2020-03-24 20:00:00 16.3 5 Este 12 Sur 0 952.5 0.4 44
2020-03-24 19:00:00 19 6 Sudeste 19 Sur 0 952.3 -0.5 32
2020-03-24 18:00:00 20 6 Sudoeste 15 Sudoeste 0 952 -1.5 31
2020-03-24 17:00:00 19.3 5 Norte 13 Nordeste 0 952.1 -2.1 36
2020-03-24 16:00:00 18.6 6 Nordeste 14 Este 0 952.8 -2 37
2020-03-24 15:00:00 17.7 7 Este 15 Nordeste 0 953.5 -1.9 40
2020-03-24 14:00:00 16.7 5 Este 17 Sudeste 0 954.2 -1.5 46
2020-03-24 13:00:00 16.3 9 Sudeste 27 Sudeste 0 954.8 -0.9 49
2020-03-24 12:00:00 14.6 13 Sudeste 27 Este 0 955.4 -0.2 54
2020-03-24 11:00:00 13.5 13 Sudeste 27 Sudeste 0 955.7 0.2 58
2020-03-24 10:00:00 12.7 9 Sudeste 22 Sudeste 0 955.7 0.7 63
2020-03-24 09:00:00 11.4 7 Este 11 Este 0 955.6 0.9 70
2020-03-24 08:00:00 10.7 5 Este 13 Este 0 955.5 1.1 73
2020-03-24 07:00:00 11.1 9 Sudeste 21 Sudeste 0 955 0.5 70
2020-03-24 06:00:00 11.1 9 Este 15 Este 0 954.7 0.3 72
2020-03-24 05:00:00 11.1 8 Este 18 Este 0 954.4 0 71
2020-03-24 04:00:00 11.4 12 Sudeste 21 Sudeste 0 954.5 0.3 70
2020-03-24 03:00:00 11.1 6 Este 19 Este 0 954.4 0.5 68
2020-03-24 02:00:00 11.8 8 Este 14 Nordeste 0 954.4 0.8 65
2020-03-24 01:00:00 12.3 10 Este 26 Este 0 954.2 1 64
2020-03-24 00:00:00 11.3 11 Este 19 Este 0 953.9 1.2 65
2020-03-23 23:00:00 11 6 Sudeste 13 Sur 0 953.6 1.5 61
2020-03-23 22:00:00 11.4 5 Sur 10 Sudeste 0 953.2 1.4 59
2020-03-23 21:00:00 11.9 5 Este 9 Sudeste 0 952.7 1.1 58
2020-03-23 20:00:00 14.9 4 Sudeste 14 Sudeste 0 952.1 0.4 45
2020-03-23 19:00:00 16.8 9 Sudeste 22 Sudeste 0 951.8 -0.3 39
2020-03-23 18:00:00 17.8 11 Sudeste 27 Sudeste 0 951.6 -0.7 37
2020-03-23 17:00:00 18.4 12 Sudeste 21 Sudeste 0 951.7 -1.4 36
2020-03-23 16:00:00 17.6 11 Sudeste 24 Este 0 952.1 -1.7 38
2020-03-23 15:00:00 17.5 5 Sudeste 14 Norte 0 952.3 -2.4 38
2020-03-23 14:00:00 17 6 Noroeste 12 Noroeste 0 953.1 -2.2 46
2020-03-23 13:00:00 14.8 5 Oeste 10 Oeste 0 953.8 -1.7 59
2020-03-23 12:00:00 11.4 6 Oeste 12 Noroeste 0 954.7 -0.5 74
2020-03-23 11:00:00 8.3 4 Noroeste 8 Sudoeste 0 955.3 0.5 82
2020-03-23 10:00:00 5.7 2 Oeste 8 Noroeste 0 955.5 1.2 95
2020-03-23 09:00:00 4 3 Noroeste 8 Noroeste 0 955.2 1.4 97
2020-03-23 08:00:00 3.3 3 Sur 5 Sudeste 0 954.8 1.4 97
2020-03-23 07:00:00 3.3 2 Sudeste 5 Sudeste 0 954.3 1 96
2020-03-23 06:00:00 3.8 2 Este 4 Este 0 953.8 0.7 95
2020-03-23 05:00:00 4.4 2 Este 5 Este 0 953.4 0.3 95
2020-03-23 04:00:00 5 2 Norte 4 Norte 0 953.3 0.2 95
2020-03-23 03:00:00 5.5 3 Este 5 Este 0 953.1 0.1 93
2020-03-23 02:00:00 6.5 3 Este 5 Este 0 953.1 0.5 91
2020-03-23 01:00:00 7.5 3 Sur 8 Este 0 953.1 1.1 89
2020-03-23 00:00:00 8.4 2 Sudeste 5 Este 0 953 1.5 89
2020-03-22 23:00:00 9 3 Noroeste 10 Sudeste 0 952.6 1.8 84
2020-03-22 22:00:00 9.6 4 Este 13 Sudeste 0 952 1.6 82
2020-03-22 21:00:00 11 4 Oeste 9 Norte 0 951.5 2.3 79
2020-03-22 20:00:00 11.4 5 Este 21 Sudeste 0.2 950.8 2.6 73
2020-03-22 19:00:00 13 12 Sudeste 30 Sudeste 1 950.4 2.4 67
2020-03-22 18:00:00 16.7 13 Sudeste 26 Sudeste 0.2 949.2 0.7 60
2020-03-22 17:00:00 18.1 6 Nordeste 26 Noroeste 0 948.2 -1 44
2020-03-22 16:00:00 19.8 9 Oeste 17 Oeste 0 948 -2 33
2020-03-22 15:00:00 19.1 8 Noroeste 18 Oeste 0 948.5 -2.3 39
2020-03-22 14:00:00 17.7 6 Oeste 14 Noroeste 0 949.2 -1.8 48
2020-03-22 13:00:00 15.6 7 Oeste 16 Oeste 0 950 -1 59
2020-03-22 12:00:00 13.8 6 Oeste 12 Oeste 0 950.8 0.2 67
2020-03-22 11:00:00 12.2 4 Oeste 9 Sudoeste 0 951 0.7 74
2020-03-22 10:00:00 9.7 0 Calma 5 Sudoeste 0 951 1.2 82
2020-03-22 09:00:00 7.4 3 Sur 6 Sudeste 0 950.6 1.1 90
2020-03-22 08:00:00 5.7 0 Calma 3 Noroeste 0 950.3 1.2 93
2020-03-22 07:00:00 6.2 0 Calma 6 Norte 0 949.8 0.9 94
2020-03-22 06:00:00 6.6 4 Sudeste 6 Sur 0 949.5 0.6 93
2020-03-22 05:00:00 7.5 2 Noroeste 5 Norte 0 949.1 0.2 88
2020-03-22 04:00:00 8.4 0 Calma 4 Sudeste 0 948.9 0.2 88
2020-03-22 03:00:00 9.7 2 Nordeste 3 Nordeste 0 948.9 0.3 85
2020-03-22 02:00:00 10.1 0 Calma 6 Sur 0 948.9 0.4 82
2020-03-22 01:00:00 9.9 2 Sudeste 5 Sudoeste 0 948.7 0.5 82
2020-03-22 00:00:00 11.2 3 Oeste 4 Sudoeste 0 948.6 1 77
2020-03-21 23:00:00 11.9 2 Sudoeste 6 Sudeste 0 948.5 1.3 74
2020-03-21 22:00:00 12.1 2 Sudeste 5 Este 0 948.2 1.5 74
2020-03-21 21:00:00 12.8 4 Nordeste 5 Nordeste 0 947.6 1.3 69
2020-03-21 20:00:00 14 2 Nordeste 7 Oeste 0 947.2 0.8 65
2020-03-21 19:00:00 15.7 4 Oeste 15 Noroeste 0 946.7 -0.3 55
2020-03-21 18:00:00 16.4 8 Noroeste 15 Oeste 0 946.3 -1.4 54
2020-03-21 17:00:00 16.9 5 Sudeste 19 Sudeste 0 946.4 -1.9 51
2020-03-21 16:00:00 16.1 11 Sudeste 22 Sudeste 0 947 -1.5 55
2020-03-21 15:00:00 15.3 14 Sudeste 27 Sudeste 0 947.7 -1.2 59
2020-03-21 14:00:00 14.8 18 Este 29 Este 0 948.3 -0.4 61
2020-03-21 13:00:00 14.7 13 Este 22 Este 0 948.5 0 61
2020-03-21 12:00:00 13.1 12 Sudeste 21 Sur 0 948.9 0.6 66
2020-03-21 11:00:00 13.2 14 Este 22 Este 0 948.7 0.5 66
2020-03-21 10:00:00 11.6 11 Este 26 Este 0 948.5 0.1 72
2020-03-21 09:00:00 10.9 15 Este 30 Este 0 948.3 0.2 75
2020-03-21 08:00:00 11.3 18 Este 29 Sudeste 0 948.2 0.1 73
2020-03-21 07:00:00 11.5 15 Este 28 Este 0 948.4 -0.3 75
2020-03-21 06:00:00 11.7 7 Este 21 Este 0 948.1 -0.7 75
2020-03-21 05:00:00 11.6 11 Este 21 Este 0 948.1 -0.9 76
2020-03-21 04:00:00 11.7 10 Este 26 Este 0 948.7 -0.9 75
2020-03-21 03:00:00 11.8 15 Este 27 Este 0 948.8 -1 77
2020-03-21 02:00:00 11.7 13 Este 19 Este 0 949 -1.2 76
2020-03-21 01:00:00 9.1 3 Sudeste 9 Este 0 949.6 -0.7 92
2020-03-21 00:00:00 10 5 Sur 10 Este 0 949.8 -0.5 89
2020-03-20 23:00:00 10.5 4 Sudeste 9 Sur 0 950.2 0.2 88
2020-03-20 22:00:00 10.8 4 Sur 14 Sudeste 0 950.3 0.3 85
2020-03-20 21:00:00 10.8 5 Sudeste 11 Sudeste 0 950.3 0.4 86
2020-03-20 20:00:00 11.8 3 Este 6 Oeste 0 950 -0.2 88
2020-03-20 19:00:00 13.3 4 Oeste 7 Oeste 0 950 -0.6 84
2020-03-20 18:00:00 13 4 Noroeste 10 Oeste 0 949.9 -0.7 84
2020-03-20 17:00:00 13.2 6 Oeste 9 Oeste 1 950.2 -0.9 85
2020-03-20 16:00:00 14.3 7 Sudeste 23 Sudeste 0.2 950.6 -0.9 71
2020-03-20 15:00:00 15.1 12 Sudeste 26 Sudeste 0 950.6 -1.5 61
2020-03-20 14:00:00 15.1 14 Sudeste 27 Este 0 951.1 -1 61
2020-03-20 13:00:00 14.3 12 Este 27 Sudeste 0 951.5 -0.8 68
2020-03-20 12:00:00 12.5 9 Este 17 Este 0 952.1 0 76
2020-03-20 11:00:00 10.8 8 Este 18 Sudeste 0 952.1 0.3 82
2020-03-20 10:00:00 11 9 Sudeste 22 Este 0 952.3 0.8 79
2020-03-20 09:00:00 10.4 5 Este 18 Este 0 952.1 0.6 83
2020-03-20 08:00:00 10.2 11 Este 23 Este 0 951.8 0.5 82
2020-03-20 07:00:00 10.2 13 Este 22 Este 0.4 951.5 0.2 82
2020-03-20 06:00:00 10.6 3 Sudeste 8 Oeste 0 951.5 -0.1 80
2020-03-20 05:00:00 11 3 Norte 9 Oeste 0 951.3 -0.6 72
2020-03-20 04:00:00 11.5 3 Sudoeste 8 Sur 0 951.3 -0.9 69
2020-03-20 03:00:00 12.2 5 Sudeste 14 Sudeste 0 951.6 -0.9 61
2020-03-20 02:00:00 12.5 4 Sur 9 Sur 0 951.9 -0.8 63
2020-03-20 01:00:00 13.1 5 Sur 14 Sudeste 0 952.2 -0.5 61
2020-03-20 00:00:00 13.7 6 Este 21 Este 0 952.5 -0.1 59
2020-03-19 23:00:00 14.5 12 Este 27 Este 0 952.7 0.2 53
2020-03-19 22:00:00 15.2 15 Este 30 Este 0 952.7 0.4 54
2020-03-19 21:00:00 15.8 13 Este 21 Este 0 952.6 0.3 56
2020-03-19 20:00:00 16.9 9 Este 26 Este 0 952.5 -0.1 55
2020-03-19 19:00:00 18 4 Nordeste 6 Este 0 952.3 -0.8 54
2020-03-19 18:00:00 18.6 3 Norte 11 Noroeste 0 952.3 -1.3 52
2020-03-19 17:00:00 18 8 Sudeste 14 Sudeste 0 952.6 -2.1 51
2020-03-19 16:00:00 18.8 9 Sudeste 19 Sudeste 0 953.1 -2.7 47
2020-03-19 15:00:00 19.6 4 Sur 12 Sudoeste 0 953.6 -3.3 53
2020-03-19 14:00:00 19.3 4 Oeste 12 Oeste 0 954.7 -3 51
2020-03-19 13:00:00 17.4 6 Oeste 13 Oeste 0 955.8 -2.4 57
2020-03-19 12:00:00 15.1 6 Oeste 12 Oeste 0 956.9 -1.4 64
2020-03-19 11:00:00 12.7 5 Oeste 10 Sudoeste 0 957.7 -0.5 69
2020-03-19 10:00:00 10.6 2 Sudoeste 5 Sudoeste 0 958.2 0 78
2020-03-19 09:00:00 8.3 0 Calma 3 Sudeste 0 958.3 0.2 87
2020-03-19 08:00:00 7 0 Calma 4 Noroeste 0 958.2 0.2 90
2020-03-19 07:00:00 7.5 2 Norte 4 Este 0 958.2 -0.2 88
2020-03-19 06:00:00 7.9 3 Sudeste 3 Sudeste 0 958.1 -0.6 86
2020-03-19 05:00:00 8.7 0 Calma 6 Norte 0 958 -1 83
2020-03-19 04:00:00 9.3 2 Sudeste 5 Este 0 958.4 -0.9 82
2020-03-19 03:00:00 10.2 2 Norte 4 Norte 0 958.7 -0.8 78
2020-03-19 02:00:00 10.8 2 Sudeste 5 Este 0 959 -0.6 76
2020-03-19 01:00:00 11.8 0 Calma 6 Sur 0 959.3 0 71
2020-03-19 00:00:00 13.1 3 Este 5 Este 0 959.5 0.3 66
2020-03-18 23:00:00 15.3 2 Sudeste 16 Este 0 959.6 0.6 58
2020-03-18 22:00:00 16.4 9 Este 17 Este 0 959.3 0.8 52
2020-03-18 21:00:00 17.2 10 Este 20 Sudeste 0 959.2 0.8 52
2020-03-18 20:00:00 18.7 6 Sudeste 12 Sudeste 0 959 0.4 48
2020-03-18 19:00:00 21 6 Sudeste 12 Sudeste 0 958.5 -0.7 42
2020-03-18 18:00:00 22.6 4 Oeste 10 Sudoeste 0 958.4 -1.6 40
2020-03-18 17:00:00 22.7 6 Oeste 12 Oeste 0 958.6 -2.4 40
2020-03-18 16:00:00 22 3 Noroeste 12 Oeste 0 959.2 -3 42
2020-03-18 15:00:00 20.8 6 Oeste 10 Noroeste 0 960 -3.2 47
2020-03-18 14:00:00 18.5 4 Oeste 13 Oeste 0 961 -2.9 53
2020-03-18 13:00:00 16.8 3 Oeste 12 Oeste 0 962.2 -2.1 59
2020-03-18 12:00:00 14.3 4 Oeste 11 Noroeste 0 963.2 -1.1 67
2020-03-18 11:00:00 11.6 5 Oeste 9 Oeste 0 963.9 -0.5 74
2020-03-18 10:00:00 9.8 4 Oeste 5 Oeste 0 964.3 0 80
2020-03-18 09:00:00 7 3 Sur 5 Sudoeste 0 964.3 0.2 93
2020-03-18 08:00:00 5.4 0 Calma 4 Nordeste 0 964.4 0.5 94
2020-03-18 07:00:00 5.9 2 Nordeste 6 Norte 0 964.3 0.3 91
2020-03-18 06:00:00 6.2 2 Este 7 Oeste 0 964.1 -0.1 90
2020-03-18 05:00:00 6.7 3 Sudeste 8 Sudeste 0 963.9 -0.6 89
2020-03-18 04:00:00 7.4 3 Noroeste 9 Sur 0 964 -0.9 86
2020-03-18 03:00:00 7.7 3 Sudeste 8 Este 0 964.2 -0.7 86
2020-03-18 02:00:00 8.8 3 Nordeste 7 Este 0 964.5 -0.3 81
2020-03-18 01:00:00 10.6 5 Oeste 24 Este 0 964.9 0.4 74
2020-03-18 00:00:00 12.6 11 Este 24 Este 0 964.9 0.9 69
2020-03-17 23:00:00 12.3 15 Este 28 Este 0 964.8 1.5 69
2020-03-17 22:00:00 12.8 10 Este 20 Este 0 964.5 1.9 67
2020-03-17 21:00:00 13.2 10 Este 24 Este 0 964 1.8 66
2020-03-17 20:00:00 14 7 Este 18 Sudeste 0 963.3 1.4 62
2020-03-17 19:00:00 15.5 10 Sudeste 32 Sudeste 0 962.6 1 55
2020-03-17 18:00:00 16.2 12 Sudeste 29 Sudeste 0 962.2 0.5 53
2020-03-17 17:00:00 17 15 Sudeste 30 Sur 0 961.9 0 51
2020-03-17 16:00:00 18.2 15 Sudeste 30 Este 0 961.6 -0.8 48
2020-03-17 15:00:00 17.4 11 Sudeste 27 Sudeste 0 961.7 -1.6 50
2020-03-17 14:00:00 15.6 4 Sudoeste 9 Oeste 0 961.9 -1.6 50
2020-03-17 13:00:00 14 5 Noroeste 10 Oeste 0 962.4 -1.1 51
2020-03-17 12:00:00 9.5 5 Oeste 9 Oeste 0 963.3 0.1 61
2020-03-17 11:00:00 7.2 3 Noroeste 9 Oeste 0 963.5 0.8 68
2020-03-17 10:00:00 6.2 4 Oeste 6 Noroeste 0 963.5 1.6 71
2020-03-17 09:00:00 5.2 3 Noroeste 5 Sudeste 0 963.2 2.1 74
2020-03-17 08:00:00 4.5 2 Sudeste 5 Este 0 962.7 2.1 74
2020-03-17 07:00:00 3.9 2 Sur 6 Sur 0 961.9 1.2 76
2020-03-17 06:00:00 3.2 2 Sur 5 Sudeste 0 961.1 0.3 76
2020-03-17 05:00:00 4.4 2 Nordeste 7 Sur 0 960.6 0.1 70
2020-03-17 04:00:00 5.8 2 Sudeste 5 Este 0 960.7 0.6 67
2020-03-17 03:00:00 6.6 3 Oeste 7 Sur 0 960.8 0.9 60
2020-03-17 02:00:00 7.1 2 Oeste 9 Sudoeste 0 960.5 0.9 59
2020-03-17 01:00:00 7.3 5 Sudoeste 13 Sudoeste 0 960.1 1 56
2020-03-17 00:00:00 7.2 6 Sudoeste 22 Sudoeste 0 959.9 1.6 56
2020-03-16 23:00:00 7.1 9 Sudoeste 18 Sudoeste 0 959.6 1.7 59
2020-03-16 22:00:00 7.5 9 Sudoeste 18 Sudoeste 0 959.1 2.4 55
2020-03-16 21:00:00 8.3 6 Oeste 17 Noroeste 0 958.3 2.1 49
2020-03-16 20:00:00 8.8 10 Nordeste 37 Norte 0 957.9 2.2 48
2020-03-16 19:00:00 10.2 18 Nordeste 43 Nordeste 0 956.7 1.2 43
2020-03-16 18:00:00 11.2 22 Nordeste 46 Nordeste 0 956.2 0.8 42
2020-03-16 17:00:00 12.2 17 Nordeste 48 Nordeste 0 955.7 0.1 39
2020-03-16 16:00:00 12.7 19 Nordeste 49 Nordeste 0 955.5 -0.5 40
2020-03-16 15:00:00 13.1 17 Nordeste 41 Nordeste 0 955.4 -0.7 37
2020-03-16 14:00:00 12.6 13 Noroeste 33 Nordeste 0 955.6 -0.3 42
2020-03-16 13:00:00 11.4 14 Noroeste 33 Noroeste 0 956 -0.1 43
2020-03-16 12:00:00 10.7 13 Noroeste 28 Noroeste 0 956.1 0.4 47
2020-03-16 11:00:00 9.6 9 Noroeste 27 Noroeste 0 955.9 0.9 53
2020-03-16 10:00:00 7.1 8 Oeste 21 Oeste 0 956.1 2 66
2020-03-16 09:00:00 5.4 7 Oeste 15 Oeste 0 955.7 2 72
2020-03-16 08:00:00 3.8 7 Oeste 14 Oeste 0 955 1.8 76
2020-03-16 07:00:00 4.1 5 Oeste 18 Sudoeste 0 954.1 0.9 74
2020-03-16 06:00:00 4 8 Oeste 17 Oeste 0 953.7 0.7 77
2020-03-16 05:00:00 4.4 9 Oeste 18 Sudoeste 0 953.2 0.4 78
2020-03-16 04:00:00 4.4 7 Oeste 14 Sudoeste 0 953.2 0.4 78
2020-03-16 03:00:00 4.4 5 Oeste 17 Oeste 0 953 0.1 78
2020-03-16 02:00:00 4.3 5 Oeste 13 Oeste 0 952.8 -0.1 80
2020-03-16 01:00:00 4.4 5 Oeste 14 Sudoeste 0 952.8 0.1 81
2020-03-16 00:00:00 4.4 5 Oeste 15 Sudoeste 0 952.9 0.8 81
2020-03-15 23:00:00 4.6 4 Oeste 15 Sudoeste 0 952.9 0.5 81
2020-03-15 22:00:00 4.5 4 Oeste 12 Sudoeste 0 952.7 0.5 82
2020-03-15 21:00:00 4.4 5 Oeste 13 Sudoeste 0.4 952.1 1.6 86
2020-03-15 20:00:00 4.6 7 Oeste 22 Oeste 1.2 952.4 3.4 84
2020-03-15 19:00:00 5.3 12 Oeste 32 Noroeste 0.4 952.2 4.6 81
2020-03-15 18:00:00 6.8 15 Oeste 39 Oeste 0 950.5 1.5 71
2020-03-15 17:00:00 10.5 18 Noroeste 36 Noroeste 0 949 -1.4 59
2020-03-15 16:00:00 17.1 11 Oeste 30 Noroeste 0 947.6 -3.5 36
2020-03-15 15:00:00 16.3 10 Oeste 23 Oeste 0 949 -2.6 35
2020-03-15 14:00:00 15.1 12 Oeste 23 Sudoeste 0 950.4 -1.5 41
2020-03-15 13:00:00 13.2 11 Oeste 24 Oeste 0 951.1 -1.6 53
2020-03-15 12:00:00 10.9 7 Oeste 15 Noroeste 0 951.6 -1.6 56
2020-03-15 11:00:00 8.8 4 Sudoeste 8 Noroeste 0 951.9 -1.2 62
2020-03-15 10:00:00 5.9 4 Noroeste 10 Noroeste 0 952.7 -0.3 71
2020-03-15 09:00:00 3.7 3 Sudeste 6 Sudeste 0 953.2 -0.2 78
2020-03-15 08:00:00 1 2 Este 4 Norte 0 953.1 -0.5 88
2020-03-15 07:00:00 1.3 0 Calma 5 Este 0 953 -1.3 86
2020-03-15 06:00:00 1.8 0 Calma 4 Este 0 953.4 -1.5 85
2020-03-15 05:00:00 2.5 2 Este 4 Nordeste 0 953.6 -1.7 81
2020-03-15 04:00:00 3.3 2 Este 5 Oeste 0 954.3 -1.3 78
2020-03-15 03:00:00 4.1 0 Calma 5 Este 0 954.9 -1.1 75
2020-03-15 02:00:00 5 3 Este 5 Este 0 955.3 -0.7 73
2020-03-15 01:00:00 6.4 3 Este 4 Este 0 955.6 -0.4 67
2020-03-15 00:00:00 8.5 3 Oeste 11 Sudoeste 0 956 0.2 57
2020-03-14 23:00:00 8.5 4 Sudeste 9 Sur 0 956 0.5 62
2020-03-14 22:00:00 10.1 0 Calma 7 Sur 0 956 0.8 58
2020-03-14 21:00:00 12.2 2 Sudeste 8 Sudeste 0 955.8 0.4 53
2020-03-14 20:00:00 15.5 3 Sudeste 8 Noroeste 0 955.5 -0.3 43
2020-03-14 19:00:00 19.9 5 Noroeste 9 Noroeste 0 955.2 -1.2 26
2020-03-14 18:00:00 20.2 2 Norte 8 Nordeste 0 955.4 -1.9 26
2020-03-14 17:00:00 19.3 4 Noroeste 9 Oeste 0 955.8 -2.8 29
2020-03-14 16:00:00 17.6 3 Noroeste 11 Noroeste 0 956.4 -3.3 36
2020-03-14 15:00:00 15.3 5 Noroeste 9 Oeste 0 957.3 -3.4 55
2020-03-14 14:00:00 12.1 5 Oeste 12 Oeste 0 958.6 -2.7 67
2020-03-14 13:00:00 9.1 5 Noroeste 16 Oeste 0 959.7 -1.7 78
2020-03-14 12:00:00 6.8 3 Norte 7 Norte 0 960.7 -0.5 87
2020-03-14 11:00:00 5.9 4 Noroeste 7 Oeste 0 961.3 0.6 90
2020-03-14 10:00:00 5 3 Oeste 7 Oeste 0 961.4 1.1 94
2020-03-14 09:00:00 4.8 4 Oeste 6 Noroeste 0 961.2 1.2 92
2020-03-14 08:00:00 5.3 4 Oeste 6 Oeste 0 960.7 0.9 89
2020-03-14 07:00:00 5.5 3 Oeste 6 Oeste 0 960.3 0.5 87
2020-03-14 06:00:00 5.6 0 Calma 5 Sudeste 0 960 0 88
2020-03-14 05:00:00 5.1 0 Calma 5 Noroeste 0 959.8 -0.1 91
2020-03-14 04:00:00 4.9 3 Sudeste 7 Sudeste 0 959.8 -0.1 92
2020-03-14 03:00:00 5.4 0 Calma 5 Sudeste 0 960 0.1 91
2020-03-14 02:00:00 6.2 3 Este 5 Este 0 959.9 0.2 86
2020-03-14 01:00:00 7.4 4 Sudeste 8 Sudeste 0 959.9 1.2 84
2020-03-14 00:00:00 8.7 0 Calma 11 Sudeste 0 959.9 1.8 79
2020-03-13 23:00:00 9.2 7 Sudeste 10 Sudeste 0 959.7 2.2 80
2020-03-13 22:00:00 11 0 Calma 5 Noroeste 0 958.7 2.1 69
2020-03-13 21:00:00 12.5 3 Oeste 10 Oeste 0 958.1 1.8 64
2020-03-13 20:00:00 14.5 2 Oeste 12 Oeste 0 957.5 1.3 59
2020-03-13 19:00:00 16.4 8 Oeste 21 Noroeste 0 956.6 -0.2 53
2020-03-13 18:00:00 18.1 10 Noroeste 19 Noroeste 0 956.3 -1.1 49
2020-03-13 17:00:00 19 5 Oeste 14 Sudoeste 0 956.2 -2 45
2020-03-13 16:00:00 18.3 6 Oeste 17 Sudoeste 0 956.8 -1.7 49
2020-03-13 15:00:00 17.5 5 Oeste 18 Oeste 0 957.4 -1.7 52
2020-03-13 14:00:00 16.3 8 Oeste 15 Oeste 0 958.2 -1 54
2020-03-13 13:00:00 15.1 7 Oeste 14 Oeste 0 958.5 -0.6 63
2020-03-13 12:00:00 12.7 6 Oeste 10 Noroeste 0 959.1 0.2 71
2020-03-13 11:00:00 11.5 4 Oeste 8 Oeste 0 959.2 0.6 75
2020-03-13 10:00:00 10 3 Sudoeste 6 Sudoeste 0 959.1 0.7 79
2020-03-13 09:00:00 8.7 3 Sudeste 4 Sudeste 0 958.9 0.7 85
2020-03-13 08:00:00 7.7 3 Este 4 Oeste 0 958.6 0.6 85
2020-03-13 07:00:00 9.3 2 Sudeste 9 Sudoeste 0 958.4 0 81
2020-03-13 06:00:00 9.5 2 Sudoeste 9 Sur 0 958.2 -0.1 79
2020-03-13 05:00:00 9.8 4 Sur 8 Sudoeste 0 958 -0.5 76
2020-03-13 04:00:00 9.8 4 Sudoeste 10 Sur 0 958.4 -0.3 78
2020-03-13 03:00:00 10.1 5 Sudoeste 10 Sudoeste 0 958.3 -0.6 77
2020-03-13 02:00:00 10.4 4 Sudoeste 12 Sudoeste 0 958.5 -0.2 77
2020-03-13 01:00:00 10.7 3 Sudoeste 11 Sur 0 958.7 0.3 76
2020-03-13 00:00:00 10.8 5 Sudoeste 12 Sudoeste 0 958.9 0.8 76
2020-03-12 23:00:00 11 3 Sudoeste 12 Oeste 0 958.7 1.1 75
2020-03-12 22:00:00 11.3 4 Sur 12 Sudoeste 0 958.4 1.6 74
2020-03-12 21:00:00 12 5 Sudoeste 12 Sudoeste 0 958.1 1.7 71
2020-03-12 20:00:00 13.3 5 Oeste 16 Oeste 0 957.6 1.4 67
2020-03-12 19:00:00 15.4 9 Oeste 18 Noroeste 0 956.8 0.5 62
2020-03-12 18:00:00 17.1 9 Noroeste 17 Oeste 0 956.4 -0.4 59
2020-03-12 17:00:00 17.7 8 Noroeste 17 Oeste 0 956.2 -1.7 57
2020-03-12 16:00:00 18.6 7 Noroeste 16 Noroeste 0 956.3 -2.5 56
2020-03-12 15:00:00 18.3 9 Oeste 15 Oeste 0 956.8 -2.5 57
2020-03-12 14:00:00 17.6 4 Sudoeste 13 Norte 0 957.9 -1.7 59
2020-03-12 13:00:00 15.3 4 Oeste 13 Oeste 0 958.8 -1 67
2020-03-12 12:00:00 13.9 4 Sudoeste 9 Sudoeste 0 959.3 0 72
2020-03-12 11:00:00 11 3 Sudeste 8 Sur 0 959.6 0.8 85
2020-03-12 10:00:00 9.1 2 Norte 6 Noroeste 0 959.8 1.3 87
2020-03-12 09:00:00 8.2 3 Sur 6 Sur 0 959.3 0.9 87
2020-03-12 08:00:00 7.2 2 Sudeste 5 Sur 0 958.8 0.5 92
2020-03-12 07:00:00 7.3 2 Norte 5 Norte 0 958.5 -0.1 89
2020-03-12 06:00:00 7.7 3 Sudeste 8 Sur 0 958.4 -0.7 88
2020-03-12 05:00:00 8.2 3 Sudeste 6 Nordeste 0 958.3 -0.7 85
2020-03-12 04:00:00 8.7 2 Este 4 Sur 0 958.6 -0.4 86
2020-03-12 03:00:00 9.4 3 Sudeste 4 Sur 0 959.1 -0.1 83
2020-03-12 02:00:00 10.3 0 Calma 5 Norte 0 959 -0.1 79
2020-03-12 01:00:00 11.4 2 Noroeste 4 Norte 0 959 0.1 77
2020-03-12 00:00:00 12.5 2 Este 8 Sudeste 0 959.2 0.4 72
2020-03-11 23:00:00 13.8 5 Sur 7 Sudeste 0 959.1 0.6 70
2020-03-11 22:00:00 15.1 0 Calma 7 Norte 0 958.9 0.9 65
2020-03-11 21:00:00 17.2 3 Nordeste 6 Sudoeste 0 958.8 1.2 58
2020-03-11 20:00:00 20.7 3 Oeste 12 Oeste 0 958.5 0.8 44
2020-03-11 19:00:00 22.9 7 Oeste 13 Oeste 0 958 -0.1 37
2020-03-11 18:00:00 24.8 6 Noroeste 21 Oeste 0 957.6 -1.3 32
2020-03-11 17:00:00 25 9 Noroeste 15 Noroeste 0 957.7 -2.3 30
2020-03-11 16:00:00 23.9 4 Sudoeste 11 Sudoeste 0 958.1 -2.9 34
2020-03-11 15:00:00 21.7 4 Noroeste 9 Noroeste 0 958.9 -3 37
2020-03-11 14:00:00 19.2 4 Noroeste 12 Oeste 0 960 -- 47
2020-03-11 13:00:00 16.4 4 Oeste -- -- -- 961 -- 56
2020-03-11 12:00:00 13.7 3 Oeste 9 Sudoeste 0 961.9 -- 64
2020-03-11 11:00:00 11.1 3 Noroeste 8 Noroeste 0 -- -- 71
2020-03-11 10:00:00 9.1 2 Norte 7 Oeste 0 -- -- 76
2020-03-11 09:00:00 6.9 0 Calma 4 Sudoeste 0 -- -- 85
2020-03-11 08:00:00 4.6 0 Calma 3 Este 0 962.8 0.2 92
2020-03-11 07:00:00 5.2 0 Calma 5 Noroeste 0 962.5 -0.1 90
2020-03-11 06:00:00 5.7 0 Calma 4 Este 0 962.5 -0.4 90
2020-03-11 05:00:00 6.5 0 Calma 8 Norte 0 962.6 -0.6 87
2020-03-11 04:00:00 7.3 3 Sudeste 9 Sudeste 0 962.6 -0.9 84
2020-03-11 03:00:00 7.9 0 Calma 5 Noroeste 0 962.9 -0.3 80
2020-03-11 02:00:00 8.6 3 Sudeste 8 Sur 0 963.2 0 80
2020-03-11 01:00:00 9.2 3 Sudeste 8 Sudeste 0 963.5 0.6 77
2020-03-11 00:00:00 10.2 3 Sur 9 Sur 0 963.2 0.5 73
2020-03-10 23:00:00 11.4 3 Sudeste 9 Sudeste 0 963.2 1.1 65
2020-03-10 22:00:00 12.8 3 Sudoeste 6 Oeste 0 962.9 1.5 62
2020-03-10 21:00:00 15.3 3 Noroeste 6 Noroeste 0 962.7 1.5 49
2020-03-10 20:00:00 18.5 0 Calma 10 Sudoeste 0 962.1 0.6 36
2020-03-10 19:00:00 21.5 9 Oeste 17 Oeste 0 961.4 -0.6 27
2020-03-10 18:00:00 23.3 6 Noroeste 12 Noroeste 0 961.2 -1.3 21
2020-03-10 17:00:00 23 5 Noroeste 12 Norte 0 961.5 -1.8 22
2020-03-10 16:00:00 21.4 4 Sudeste 10 Oeste 0 962 -2.5 26
2020-03-10 15:00:00 19.5 5 Noroeste 11 Nordeste 0 962.5 -2.7 33
2020-03-10 14:00:00 17.5 4 Noroeste 10 Noroeste 0 963.3 -2.5 40
2020-03-10 13:00:00 14.5 6 Oeste 13 Oeste 0 964.5 -1 51
2020-03-10 12:00:00 11.5 3 Sudeste 7 Sur 0 965.2 0 62
2020-03-10 11:00:00 8.2 4 Oeste 8 Noroeste 0 965.8 0.8 74
2020-03-10 10:00:00 6.9 4 Sudoeste 7 Sudoeste 0 965.5 0.5 79
2020-03-10 09:00:00 5.2 3 Sudeste 5 Norte 0 965.2 0.3 88
2020-03-10 08:00:00 4.1 2 Norte 5 Noroeste 0 965 0.3 91
2020-03-10 07:00:00 4.5 2 Este 4 Este 0 965 0.4 89
2020-03-10 06:00:00 5 0 Calma 6 Norte 0 964.9 -0.3 87
2020-03-10 05:00:00 5.2 4 Sudeste 7 Sudeste 0 964.7 -0.6 87
2020-03-10 04:00:00 5.6 2 Este 3 Este 0 964.6 -0.7 86
2020-03-10 03:00:00 6.2 0 Calma 5 Sur 0 965.2 -0.4 83
2020-03-10 02:00:00 6.6 3 Sudeste 5 Sur 0 965.3 -0.5 81
2020-03-10 01:00:00 7.5 2 Oeste 7 Sudeste 0 965.3 -0.1 77
2020-03-10 00:00:00 8.1 3 Sudeste 8 Sudeste 0 965.6 0.6 77
2020-03-09 23:00:00 9.1 4 Sudeste 6 Sudeste 0 965.8 1.3 72
2020-03-09 22:00:00 10.4 2 Sudeste 6 Este 0 965.4 1.3 68
2020-03-09 21:00:00 12.6 3 Oeste 13 Oeste 0 965 1 57
2020-03-09 20:00:00 13.5 5 Oeste 17 Oeste 0 964.5 0.7 54
2020-03-09 19:00:00 15.4 6 Oeste 20 Oeste 0 964.1 -0.3 44
2020-03-09 18:00:00 16.5 11 Oeste 24 Noroeste 0 964 -0.8 40
2020-03-09 17:00:00 17 10 Oeste 22 Oeste 0 963.8 -2 34
2020-03-09 16:00:00 17.1 8 Oeste 18 Oeste 0 964.4 -2.2 34
2020-03-09 15:00:00 15.9 9 Oeste 21 Noroeste 0 964.8 -2.4 36
2020-03-09 14:00:00 14.1 9 Noroeste 19 Oeste 0 965.8 -1.6 40
2020-03-09 13:00:00 12.8 10 Oeste 18 Oeste 0 966.6 -0.2 47
2020-03-09 12:00:00 11.5 9 Oeste 19 Oeste 0 967.2 0.8 54
2020-03-09 11:00:00 10.1 12 Oeste 23 Oeste 0 967.4 1.4 56
2020-03-09 10:00:00 9.1 9 Oeste 21 Oeste 0 966.8 1.4 63
2020-03-09 09:00:00 6.7 0 Calma 5 Nordeste 0 966.4 1.7 78
2020-03-09 08:00:00 4.9 3 Nordeste 6 Noroeste 0 966 1.4 83
2020-03-09 07:00:00 5.9 2 Norte 12 Oeste 0 965.4 0.4 79
2020-03-09 06:00:00 6.8 4 Oeste 18 Noroeste 0 964.7 -0.1 78
2020-03-09 05:00:00 7.6 7 Oeste 18 Oeste 0 964.6 -0.5 78
2020-03-09 04:00:00 7.9 10 Oeste 20 Noroeste 0 965 -0.3 76
2020-03-09 03:00:00 8.6 10 Oeste 19 Oeste 0 964.8 -0.4 71
2020-03-09 02:00:00 8.9 6 Sudoeste 12 Oeste 0 965.1 0.2 71
2020-03-09 01:00:00 9.1 4 Oeste 21 Oeste 0 965.3 1.4 69
2020-03-09 00:00:00 9.5 7 Oeste 22 Oeste 0 965.2 1.6 68